createdAt,value
2023-03-08T00:02:28.705Z,95110.25
2023-03-08T00:05:01.980Z,95113.69
2023-03-08T00:07:34.968Z,95119.34
2023-03-08T00:10:08.022Z,95117.47
2023-03-08T00:12:42.386Z,95115.59
2023-03-08T00:15:15.251Z,95114.81
2023-03-08T00:17:48.357Z,95122.78
2023-03-08T00:20:21.093Z,95124.69
2023-03-08T00:22:53.829Z,95130.34
2023-03-08T00:25:27.175Z,95117.47
2023-03-08T00:28:01.228Z,95117.81
2023-03-08T00:30:33.954Z,95122.00
2023-03-08T00:33:06.683Z,95104.50
2023-03-08T00:35:39.390Z,95104.50
2023-03-08T00:38:12.104Z,95101.81
2023-03-08T00:40:44.801Z,95109.47
2023-03-08T00:43:19.073Z,95106.38
2023-03-08T00:45:53.122Z,95101.81
2023-03-08T00:48:26.228Z,95095.41
2023-03-08T00:50:58.908Z,95093.50
2023-03-08T00:53:31.713Z,95083.19
2023-03-08T00:56:04.532Z,95087.41
2023-03-08T00:58:39.507Z,95077.88
2023-03-08T01:01:15.246Z,95067.22
2023-03-08T01:03:48.101Z,95072.53
2023-03-08T01:06:20.817Z,95070.66
2023-03-08T01:08:53.553Z,95056.56
2023-03-08T01:11:26.931Z,95053.56
2023-03-08T01:14:00.975Z,95055.13
2023-03-08T01:16:34.673Z,95044.38
2023-03-08T01:19:07.401Z,95034.16
2023-03-08T01:21:40.071Z,95032.72
2023-03-08T01:24:13.035Z,95016.31
2023-03-08T01:26:45.732Z,95013.63
2023-03-08T01:29:19.846Z,95006.44
2023-03-08T01:31:52.499Z,94999.56
2023-03-08T01:34:25.316Z,94992.34
2023-03-08T01:36:57.994Z,94987.03
2023-03-08T01:39:30.675Z,94987.03
2023-03-08T01:42:07.214Z,94984.69
2023-03-08T01:44:55.590Z,94983.59
2023-03-08T01:47:29.105Z,94974.81
2023-03-08T01:50:04.252Z,94966.84
2023-03-08T01:52:39.118Z,94959.97
2023-03-08T01:55:13.747Z,94960.72
2023-03-08T01:57:48.670Z,94964.16
2023-03-08T02:00:23.143Z,94955.41
2023-03-08T02:02:59.390Z,94954.63
2023-03-08T02:05:32.811Z,94950.09
2023-03-08T02:08:05.665Z,94945.97
2023-03-08T02:10:39.176Z,94949.75
2023-03-08T02:13:12.584Z,94946.75
2023-03-08T02:15:45.436Z,94950.19
2023-03-08T02:18:19.606Z,94946.75
2023-03-08T02:20:52.294Z,94934.97
2023-03-08T02:23:26.657Z,94940.66
2023-03-08T02:26:01.736Z,94927.34
2023-03-08T02:28:34.664Z,94928.88
2023-03-08T02:31:07.605Z,94925.44
2023-03-08T02:33:40.325Z,94925.00
2023-03-08T02:36:19.594Z,94919.69
2023-03-08T02:38:53.694Z,94917.38
2023-03-08T02:41:26.638Z,94920.38
2023-03-08T02:43:59.412Z,94904.34
2023-03-08T02:46:32.272Z,94903.13
2023-03-08T02:49:05.308Z,94893.16
2023-03-08T02:51:38.473Z,94889.22
2023-03-08T02:54:12.556Z,94878.84
2023-03-08T02:56:45.315Z,94882.53
2023-03-08T02:59:18.058Z,94879.38
2023-03-08T03:01:52.373Z,94866.34
2023-03-08T03:04:25.313Z,94873.78
2023-03-08T03:06:58.745Z,94856.53
2023-03-08T03:09:32.918Z,94859.44
2023-03-08T03:12:05.884Z,94850.19
2023-03-08T03:14:38.548Z,94860.31
2023-03-08T03:17:11.332Z,94854.56
2023-03-08T03:19:44.006Z,94851.03
2023-03-08T03:22:16.872Z,94847.81
2023-03-08T03:24:52.250Z,94832.22
2023-03-08T03:27:24.945Z,94835.97
2023-03-08T03:29:57.653Z,94838.22
2023-03-08T03:32:30.526Z,94839.69
2023-03-08T03:35:03.387Z,94829.38
2023-03-08T03:37:36.859Z,94824.06
2023-03-08T03:40:11.931Z,94828.94
2023-03-08T03:42:44.646Z,94817.19
2023-03-08T03:45:17.489Z,94811.47
2023-03-08T03:47:50.256Z,94810.34
2023-03-08T03:50:24.175Z,94805.38
2023-03-08T03:52:56.950Z,94803.50
2023-03-08T03:55:31.016Z,94807.69
2023-03-08T03:58:03.786Z,94794.38
2023-03-08T04:00:36.454Z,94797.47
2023-03-08T04:03:09.273Z,94787.63
2023-03-08T04:05:41.991Z,94783.84
2023-03-08T04:08:15.005Z,94778.97
2023-03-08T04:10:49.114Z,94780.50
2023-03-08T04:13:22.275Z,94776.75
2023-03-08T04:15:55.030Z,94780.59
2023-03-08T04:18:27.770Z,94770.38
2023-03-08T04:21:00.605Z,94763.63
2023-03-08T04:23:33.723Z,94760.63
2023-03-08T04:26:08.320Z,94748.06
2023-03-08T04:28:41.090Z,94751.97
2023-03-08T04:31:14.967Z,94750.84
2023-03-08T04:33:48.167Z,94751.63
2023-03-08T04:36:21.626Z,94739.53
2023-03-08T04:38:54.421Z,94742.59
2023-03-08T04:41:28.541Z,94743.03
2023-03-08T04:44:01.399Z,94746.13
2023-03-08T04:46:34.192Z,94744.25
2023-03-08T04:49:06.990Z,94730.59
2023-03-08T04:51:39.692Z,94733.69
2023-03-08T04:54:12.712Z,94717.72
2023-03-08T04:56:46.733Z,94722.69
2023-03-08T04:59:19.416Z,94721.22
2023-03-08T05:01:52.153Z,94728.09
2023-03-08T15:01:26.791Z,94474.47
2023-03-08T15:03:59.861Z,94474.84
2023-03-08T15:06:34.283Z,94456.75
2023-03-08T15:09:08.599Z,94476.38
2023-03-08T15:11:41.725Z,94477.50
2023-03-08T15:14:14.757Z,94471.75
2023-03-08T15:16:51.282Z,94487.53
2023-03-08T15:19:24.017Z,94482.63
2023-03-08T15:21:56.983Z,94469.53
2023-03-08T15:24:29.755Z,94453.09
2023-03-08T15:27:02.507Z,94449.69
2023-03-08T15:29:36.924Z,94444.38
2023-03-08T15:32:11.725Z,94448.72
2023-03-08T15:34:44.490Z,94440.03
2023-03-08T15:37:17.387Z,94424.00
2023-03-08T15:39:50.115Z,94427.56
2023-03-08T15:42:23.014Z,94439.94
2023-03-08T15:44:55.665Z,94418.97
2023-03-08T15:47:29.969Z,94431.34
2023-03-08T15:50:03.106Z,94428.72
2023-03-08T15:52:35.877Z,94423.41
2023-03-08T15:55:09.517Z,94420.03
2023-03-08T15:57:43.410Z,94419.34
2023-03-08T16:00:17.748Z,94424.00
2023-03-08T16:02:52.563Z,94412.19
2023-03-08T16:05:26.745Z,94406.47
2023-03-08T16:08:00.586Z,94421.13
2023-03-08T16:10:40.282Z,94412.34
2023-03-08T16:13:13.023Z,94402.03
2023-03-08T16:15:46.082Z,94406.66
2023-03-08T16:18:20.353Z,94419.75
2023-03-08T16:20:53.015Z,94419.03
2023-03-08T16:23:25.692Z,94415.63
2023-03-08T16:26:13.604Z,94422.16
2023-03-08T16:28:48.124Z,94427.13
2023-03-08T16:31:21.890Z,94452.88
2023-03-08T16:33:56.130Z,94471.28
2023-03-08T16:36:28.769Z,94484.72
2023-03-08T16:39:01.638Z,94476.69
2023-03-08T16:41:34.492Z,94482.84
2023-03-08T16:44:07.958Z,94480.56
2023-03-08T16:46:42.627Z,94473.66
2023-03-08T16:49:16.964Z,94476.00
2023-03-08T16:51:50.395Z,94482.91
2023-03-08T16:54:23.524Z,94471.41
2023-03-08T16:56:56.194Z,94479.47
2023-03-08T16:59:28.865Z,94482.16
2023-03-08T17:02:01.596Z,94471.03
2023-03-08T17:04:35.772Z,94476.03
2023-03-08T17:07:08.818Z,94465.31
2023-03-08T17:09:41.904Z,94483.31
2023-03-08T17:12:14.721Z,94482.16
2023-03-08T17:14:47.528Z,94483.31
2023-03-08T17:17:20.166Z,94467.97
2023-03-08T17:19:54.811Z,94460.69
2023-03-08T17:22:27.462Z,94455.34
2023-03-08T17:25:00.288Z,94451.13
2023-03-08T17:27:32.950Z,94448.44
2023-03-08T17:30:06.194Z,94449.97
2023-03-08T17:32:38.941Z,94433.91
2023-03-08T17:35:13.133Z,94451.88
2023-03-08T17:37:46.091Z,94439.25
2023-03-08T17:40:19.750Z,94441.56
2023-03-08T17:42:52.535Z,94441.19
2023-03-08T17:45:25.420Z,94439.66
2023-03-08T17:48:02.656Z,94464.91
2023-03-08T17:50:36.951Z,94467.56
2023-03-08T17:53:12.762Z,94489.00
2023-03-08T17:55:45.523Z,94484.38
2023-03-08T17:58:20.007Z,94486.69
2023-03-08T18:00:52.932Z,94466.41
2023-03-08T18:03:25.881Z,94467.56
2023-03-08T18:05:59.918Z,94469.84
2023-03-08T18:08:32.736Z,94494.72
2023-03-08T18:11:05.582Z,94491.66
2023-03-08T18:13:40.633Z,94501.56
2023-03-08T18:16:13.890Z,94498.16
2023-03-08T18:18:50.243Z,94476.34
2023-03-08T18:21:24.433Z,94483.97
2023-03-08T18:23:57.087Z,94480.91
2023-03-08T18:26:29.882Z,94492.41
2023-03-08T18:29:02.533Z,94478.63
2023-03-08T18:31:37.377Z,94481.28
2023-03-08T18:34:10.531Z,94489.31
2023-03-08T18:36:44.816Z,94472.84
2023-03-08T18:39:17.593Z,94469.81
2023-03-08T18:41:50.326Z,94478.59
2023-03-08T18:44:23.073Z,94467.47
2023-03-08T18:46:56.078Z,94459.44
2023-03-08T18:49:28.845Z,94459.47
2023-03-08T18:52:04.855Z,94462.50
2023-03-08T18:54:38.742Z,94456.00
2023-03-08T18:57:11.445Z,94466.31
2023-03-08T18:59:44.231Z,94462.50
2023-03-08T19:02:19.060Z,94466.31
2023-03-08T19:04:52.870Z,94463.22
2023-03-08T19:07:27.116Z,94476.22
2023-03-08T19:10:01.609Z,94479.66
2023-03-08T19:12:37.449Z,94470.09
2023-03-08T19:15:11.680Z,94478.13
2023-03-08T19:17:44.471Z,94471.63
2023-03-08T19:20:17.142Z,94486.56
2023-03-08T19:22:51.438Z,94479.31
2023-03-08T19:25:24.505Z,94481.59
2023-03-08T19:27:57.276Z,94488.47
2023-03-08T19:30:29.913Z,94489.66
2023-03-08T19:33:02.935Z,94498.84
2023-03-08T19:35:35.899Z,94503.81
2023-03-08T19:38:10.185Z,94492.72
2023-03-08T19:40:44.310Z,94498.47
2023-03-08T19:43:17.077Z,94497.31
2023-03-08T19:45:50.424Z,94499.25
2023-03-08T19:48:23.197Z,94496.56
2023-03-08T19:50:55.908Z,94507.28
2023-03-08T19:53:30.095Z,94508.81
2023-03-08T19:56:03.066Z,94496.94
2023-03-08T19:58:35.901Z,94504.97
2023-03-08T20:01:09.818Z,94507.66
2023-03-08T20:03:42.715Z,94512.25
2023-03-08T20:06:22.324Z,94507.66
2023-03-08T20:08:57.129Z,94498.91
2023-03-08T20:11:30.193Z,94498.91
2023-03-08T20:14:03.040Z,94501.94
2023-03-08T20:16:35.977Z,94494.28
2023-03-08T20:19:08.792Z,94500.81
2023-03-08T20:21:41.852Z,94496.63
2023-03-08T20:24:18.514Z,94489.34
2023-03-08T20:26:51.475Z,94492.41
2023-03-08T20:29:24.729Z,94500.47
2023-03-08T20:31:58.509Z,94497.38
2023-03-08T20:34:32.358Z,94497.41
2023-03-08T20:37:05.155Z,94499.34
2023-03-08T20:39:39.694Z,94495.88
2023-03-08T20:42:12.449Z,94497.81
2023-03-08T20:44:45.314Z,94502.41
2023-03-08T20:47:18.249Z,94496.28
2023-03-08T20:49:51.020Z,94499.75
2023-03-08T20:52:23.897Z,94500.53
2023-03-08T20:54:58.107Z,94499.00
2023-03-08T20:57:30.973Z,94502.47
2023-03-08T21:00:04.870Z,94506.66
2023-03-08T21:02:38.110Z,94504.38
2023-03-08T21:05:11.224Z,94494.03
2023-03-08T21:07:43.996Z,94494.03
2023-03-08T21:10:19.093Z,94485.22
2023-03-08T21:12:52.014Z,94481.78
2023-03-08T21:15:25.039Z,94462.25
2023-03-08T21:17:57.820Z,94461.13
2023-03-08T21:20:30.607Z,94452.69
2023-03-08T21:23:03.456Z,94445.78
2023-03-08T21:25:38.817Z,94461.50
2023-03-08T21:28:11.570Z,94454.63
2023-03-08T21:30:44.582Z,94453.03
2023-03-08T21:33:17.278Z,94456.47
2023-03-08T21:35:50.743Z,94467.19
2023-03-08T21:38:24.805Z,94466.03
2023-03-08T21:40:59.573Z,94472.94
2023-03-08T21:43:32.407Z,94492.47
2023-03-08T21:46:05.413Z,94507.78
2023-03-08T21:48:38.192Z,94519.66
2023-03-08T21:51:11.329Z,94511.25
2023-03-08T21:53:44.779Z,94493.66
2023-03-08T21:56:19.676Z,94499.38
2023-03-08T21:58:52.484Z,94499.41
2023-03-08T22:01:26.831Z,94501.31
2023-03-08T22:04:00.463Z,94490.19
2023-03-08T22:06:33.547Z,94486.75
2023-03-08T22:09:06.449Z,94480.63
2023-03-08T22:11:41.080Z,94479.88
2023-03-08T22:14:13.898Z,94471.03
2023-03-08T22:16:47.140Z,94455.34
2023-03-08T22:19:19.927Z,94467.59
2023-03-08T22:21:53.087Z,94458.41
2023-03-08T22:24:25.952Z,94450.00
2023-03-08T22:27:00.121Z,94456.50
2023-03-08T22:29:33.867Z,94458.81
2023-03-08T22:32:07.986Z,94455.75
2023-03-08T22:34:40.999Z,94461.09
2023-03-08T22:37:13.819Z,94455.34
2023-03-08T22:39:46.757Z,94457.25
2023-03-08T22:42:20.950Z,94458.78
2023-03-08T22:44:53.913Z,94438.50
2023-03-08T22:47:26.876Z,94442.69
2023-03-08T22:49:59.561Z,94444.63
2023-03-08T22:52:32.302Z,94440.00
2023-03-08T22:55:05.223Z,94441.53
2023-03-08T22:57:39.344Z,94443.06
2023-03-08T23:00:15.297Z,94432.69
2023-03-08T23:02:50.785Z,94446.09
2023-03-08T23:05:28.813Z,94435.38
2023-03-08T23:08:02.441Z,94420.78
2023-03-08T23:10:44.287Z,94452.22
2023-03-08T23:13:32.757Z,94448.75
2023-03-08T23:16:07.808Z,94451.81
2023-03-08T23:18:41.111Z,94439.91
2023-03-08T23:21:15.278Z,94431.47
2023-03-08T23:23:48.182Z,94419.16
2023-03-08T23:26:24.472Z,94419.13
2023-03-08T23:29:00.706Z,94410.31
2023-03-08T23:31:34.699Z,94408.78
2023-03-08T23:34:07.598Z,94409.16
2023-03-08T23:36:40.307Z,94403.78
2023-03-08T23:39:12.964Z,94417.22
2023-03-08T23:41:45.799Z,94396.50
2023-03-08T23:44:19.974Z,94399.19
2023-03-08T23:46:52.793Z,94403.41
2023-03-08T23:49:25.492Z,94412.63
2023-03-08T23:51:58.149Z,94423.00
2023-03-08T23:54:30.879Z,94439.84
2023-03-08T23:57:03.587Z,94419.91
2023-03-08T23:59:37.687Z,94413.38
